Time;durP1;ratioP1;P1;durP2;ratioP2;P2;SDS_P1;SDS_P2;PMS_P1;PMS_P2;Temp;Humidity;BMP_temperature;BMP_pressure;BME280_temperature;BME280_humidity;BME280_pressure;Samples;Min_cycle;Max_cycle;Signal;HPM_P1;HPM_P2
2022/11/02 00:01:05;;;;;;;;;;;23.70;42.30;;;;;;492311;242;1218;-72
2022/11/02 00:03:07;;;;;;;;;;;23.70;42.40;;;;;;492247;242;1449;-72
2022/11/02 00:05:08;;;;;;;;;;;23.70;42.40;;;;;;492277;242;1229;-72
2022/11/02 00:07:09;;;;;;;;;;;23.70;42.20;;;;;;492236;242;1357;-72
2022/11/02 00:09:11;;;;;;;;;;;23.80;42.10;;;;;;492240;242;1256;-72
2022/11/02 00:11:12;;;;;;;;;;;23.90;42.00;;;;;;492245;242;2176;-72
2022/11/02 00:13:13;;;;;;;;;;;23.90;41.90;;;;;;492235;242;1182;-72
2022/11/02 00:15:15;;;;;;;;;;;24.00;41.80;;;;;;492215;242;1281;-72
2022/11/02 00:17:16;;;;;;;;;;;24.00;41.80;;;;;;492227;242;1313;-71
2022/11/02 00:19:17;;;;;;;;;;;24.00;41.60;;;;;;492281;242;1673;-72
2022/11/02 00:21:19;;;;;;;;;;;24.10;41.60;;;;;;492298;242;1366;-72
2022/11/02 00:23:20;;;;;;;;;;;24.10;41.50;;;;;;492232;242;1316;-72
2022/11/02 00:25:21;;;;;;;;;;;24.10;41.50;;;;;;492249;242;1241;-72
2022/11/02 00:27:23;;;;;;;;;;;24.10;41.50;;;;;;492236;242;1331;-72
2022/11/02 00:29:24;;;;;;;;;;;24.10;41.40;;;;;;492248;242;2148;-72
2022/11/02 00:31:25;;;;;;;;;;;24.10;41.40;;;;;;492310;242;1200;-72
2022/11/02 00:33:27;;;;;;;;;;;24.10;41.30;;;;;;492245;242;1243;-72
2022/11/02 00:35:28;;;;;;;;;;;24.10;41.30;;;;;;492242;242;1148;-72
2022/11/02 00:37:29;;;;;;;;;;;24.10;41.30;;;;;;492258;242;1183;-72
2022/11/02 00:39:31;;;;;;;;;;;24.10;41.30;;;;;;492225;242;1315;-72
2022/11/02 00:41:32;;;;;;;;;;;24.00;41.30;;;;;;492228;242;1482;-72
2022/11/02 00:43:33;;;;;;;;;;;24.10;41.30;;;;;;492238;242;1303;-72
2022/11/02 00:45:35;;;;;;;;;;;24.10;41.20;;;;;;492211;242;1276;-72
2022/11/02 00:47:36;;;;;;;;;;;24.10;41.20;;;;;;492318;242;1358;-72
2022/11/02 00:49:37;;;;;;;;;;;24.10;41.20;;;;;;492184;242;2188;-72
2022/11/02 00:51:39;;;;;;;;;;;24.10;41.10;;;;;;492199;242;1237;-72
2022/11/02 00:53:40;;;;;;;;;;;24.10;41.10;;;;;;492173;242;1481;-74
2022/11/02 00:55:41;;;;;;;;;;;24.10;41.10;;;;;;492175;242;1293;-74
2022/11/02 00:57:43;;;;;;;;;;;24.20;41.10;;;;;;492224;242;1473;-74
2022/11/02 00:59:44;;;;;;;;;;;24.10;41.00;;;;;;492241;242;1307;-74
2022/11/02 01:01:46;;;;;;;;;;;24.10;41.00;;;;;;492245;242;1274;-74
2022/11/02 01:03:47;;;;;;;;;;;24.10;41.00;;;;;;492218;242;1908;-74
2022/11/02 01:05:48;;;;;;;;;;;24.10;40.70;;;;;;492250;242;1415;-74
2022/11/02 01:07:49;;;;;;;;;;;24.10;40.90;;;;;;492188;242;1264;-75
2022/11/02 01:09:51;;;;;;;;;;;24.10;40.80;;;;;;492221;242;2165;-74
2022/11/02 01:11:53;;;;;;;;;;;24.10;40.90;;;;;;492227;242;1273;-74
2022/11/02 01:13:53;;;;;;;;;;;24.00;40.90;;;;;;492226;242;1609;-74
2022/11/02 01:15:55;;;;;;;;;;;24.10;40.80;;;;;;492258;242;1204;-74
2022/11/02 01:17:56;;;;;;;;;;;24.10;40.80;;;;;;492238;242;1258;-74
2022/11/02 01:19:58;;;;;;;;;;;24.10;40.80;;;;;;492240;242;1200;-74
2022/11/02 01:21:59;;;;;;;;;;;24.10;40.80;;;;;;492280;242;1248;-74
2022/11/02 01:24:00;;;;;;;;;;;24.10;40.80;;;;;;492247;242;1236;-74
2022/11/02 01:26:01;;;;;;;;;;;24.10;40.80;;;;;;492309;242;1315;-74
2022/11/02 01:28:03;;;;;;;;;;;24.10;40.70;;;;;;492260;242;1247;-74
2022/11/02 01:30:04;;;;;;;;;;;24.10;40.70;;;;;;492227;242;2145;-74
2022/11/02 01:32:05;;;;;;;;;;;24.10;40.70;;;;;;492343;242;1314;-75
2022/11/02 01:34:07;;;;;;;;;;;24.10;40.70;;;;;;492312;242;1201;-75
2022/11/02 01:36:08;;;;;;;;;;;24.10;40.60;;;;;;492341;242;1583;-74
2022/11/02 01:38:09;;;;;;;;;;;24.10;40.60;;;;;;492255;242;1269;-74
2022/11/02 01:40:11;;;;;;;;;;;24.10;40.60;;;;;;492233;242;1507;-74
2022/11/02 01:42:12;;;;;;;;;;;24.10;40.50;;;;;;492243;242;1314;-74
2022/11/02 01:44:13;;;;;;;;;;;24.20;40.50;;;;;;492186;242;1593;-74
2022/11/02 01:46:15;;;;;;;;;;;24.10;40.60;;;;;;492239;242;1219;-74
2022/11/02 01:48:16;;;;;;;;;;;24.10;40.60;;;;;;492259;242;1315;-74
2022/11/02 01:50:17;;;;;;;;;;;24.00;40.60;;;;;;492280;242;2156;-74
2022/11/02 01:52:19;;;;;;;;;;;24.10;40.60;;;;;;492206;242;1514;-74
2022/11/02 01:54:20;;;;;;;;;;;24.00;40.60;;;;;;492198;242;2290;-75
2022/11/02 01:56:22;;;;;;;;;;;24.10;40.60;;;;;;492217;242;1178;-75
2022/11/02 01:58:23;;;;;;;;;;;24.10;40.60;;;;;;492286;242;1360;-75
2022/11/02 02:00:24;;;;;;;;;;;24.10;40.60;;;;;;492238;242;1329;-74
2022/11/02 02:02:26;;;;;;;;;;;24.10;40.60;;;;;;492248;242;1302;-74
2022/11/02 02:04:27;;;;;;;;;;;24.10;40.60;;;;;;492209;242;1206;-74
2022/11/02 02:06:28;;;;;;;;;;;24.00;40.70;;;;;;492244;242;1354;-74
2022/11/02 02:08:30;;;;;;;;;;;24.10;40.70;;;;;;492179;242;1284;-75
2022/11/02 02:10:31;;;;;;;;;;;24.00;40.60;;;;;;492205;242;2211;-75
2022/11/02 02:12:32;;;;;;;;;;;24.00;40.60;;;;;;492241;242;1177;-74
2022/11/02 02:14:34;;;;;;;;;;;24.10;40.60;;;;;;492203;242;1236;-74
2022/11/02 02:16:35;;;;;;;;;;;24.10;40.60;;;;;;492264;242;1324;-74
2022/11/02 02:18:36;;;;;;;;;;;24.10;40.60;;;;;;492231;242;1288;-74
2022/11/02 02:20:38;;;;;;;;;;;24.00;40.60;;;;;;492285;242;1507;-74
2022/11/02 02:22:39;;;;;;;;;;;24.00;40.70;;;;;;492229;242;1330;-74
2022/11/02 02:24:40;;;;;;;;;;;24.10;40.60;;;;;;492299;242;1178;-74
2022/11/02 02:26:42;;;;;;;;;;;24.10;40.60;;;;;;492335;242;1239;-74
2022/11/02 02:28:43;;;;;;;;;;;24.10;40.60;;;;;;492226;242;1235;-74
2022/11/02 02:30:44;;;;;;;;;;;24.00;40.70;;;;;;492249;242;2168;-74
2022/11/02 02:32:46;;;;;;;;;;;24.00;40.70;;;;;;492241;242;1188;-74
2022/11/02 02:34:47;;;;;;;;;;;24.00;40.70;;;;;;492271;242;1201;-74
2022/11/02 02:36:48;;;;;;;;;;;24.00;40.80;;;;;;492176;242;1277;-74
2022/11/02 02:38:50;;;;;;;;;;;24.00;40.80;;;;;;492274;242;1240;-72
2022/11/02 02:40:51;;;;;;;;;;;24.10;40.70;;;;;;492297;242;1169;-72
2022/11/02 02:42:52;;;;;;;;;;;24.00;40.70;;;;;;492246;242;1235;-72
2022/11/02 02:44:54;;;;;;;;;;;24.00;40.70;;;;;;492235;242;1217;-72
2022/11/02 02:46:55;;;;;;;;;;;24.00;40.70;;;;;;492199;242;1151;-72
2022/11/02 02:48:56;;;;;;;;;;;24.10;40.70;;;;;;492211;242;1155;-72
2022/11/02 02:50:57;;;;;;;;;;;24.00;40.60;;;;;;492215;242;2207;-72
2022/11/02 02:52:59;;;;;;;;;;;24.10;40.70;;;;;;492157;242;1300;-72
2022/11/02 02:55:00;;;;;;;;;;;24.10;40.70;;;;;;492266;242;1187;-72
2022/11/02 02:57:01;;;;;;;;;;;24.00;40.70;;;;;;492337;242;1304;-72
2022/11/02 02:59:03;;;;;;;;;;;24.10;40.80;;;;;;492263;242;1262;-72
2022/11/02 03:01:04;;;;;;;;;;;24.00;40.80;;;;;;492268;242;1213;-72
2022/11/02 03:03:05;;;;;;;;;;;24.10;40.80;;;;;;492238;242;1274;-72
2022/11/02 03:05:07;;;;;;;;;;;24.10;40.80;;;;;;492265;242;1288;-72
2022/11/02 03:07:08;;;;;;;;;;;24.00;40.80;;;;;;492251;242;1452;-72
2022/11/02 03:09:09;;;;;;;;;;;24.10;40.90;;;;;;492360;242;1492;-72
2022/11/02 03:11:11;;;;;;;;;;;24.00;41.00;;;;;;492266;242;2211;-72
2022/11/02 03:13:12;;;;;;;;;;;24.00;41.10;;;;;;492242;242;1263;-72
2022/11/02 03:15:13;;;;;;;;;;;24.00;41.00;;;;;;492236;242;1176;-72
2022/11/02 03:17:15;;;;;;;;;;;24.10;41.00;;;;;;492237;242;1753;-72
2022/11/02 03:19:16;;;;;;;;;;;24.10;41.00;;;;;;492192;242;1284;-72
2022/11/02 03:21:17;;;;;;;;;;;24.10;41.00;;;;;;492338;242;1534;-72
2022/11/02 03:23:19;;;;;;;;;;;24.00;41.10;;;;;;492192;242;1301;-72
2022/11/02 03:25:20;;;;;;;;;;;24.00;41.10;;;;;;492262;242;1219;-72
2022/11/02 03:27:21;;;;;;;;;;;24.00;41.20;;;;;;492222;242;1549;-72
2022/11/02 03:29:23;;;;;;;;;;;24.10;41.30;;;;;;492267;242;1362;-72
2022/11/02 03:31:25;;;;;;;;;;;24.00;41.40;;;;;;492258;242;2212;-72
2022/11/02 03:33:26;;;;;;;;;;;24.00;41.40;;;;;;492229;242;1646;-72
2022/11/02 03:35:28;;;;;;;;;;;24.10;41.50;;;;;;492197;242;1330;-72
2022/11/02 03:37:29;;;;;;;;;;;24.00;41.50;;;;;;492218;242;1183;-72
2022/11/02 03:39:30;;;;;;;;;;;24.10;41.60;;;;;;492276;242;1174;-72
2022/11/02 03:41:31;;;;;;;;;;;24.00;41.70;;;;;;492355;242;1359;-72
2022/11/02 03:43:33;;;;;;;;;;;24.00;41.80;;;;;;492391;242;1205;-72
2022/11/02 03:45:34;;;;;;;;;;;24.00;41.80;;;;;;492310;242;1306;-72
2022/11/02 03:47:35;;;;;;;;;;;23.90;41.90;;;;;;492290;242;1298;-72
2022/11/02 03:49:37;;;;;;;;;;;23.90;42.00;;;;;;492264;242;1271;-72
2022/11/02 03:51:38;;;;;;;;;;;24.00;42.00;;;;;;492244;242;2148;-72
2022/11/02 03:53:39;;;;;;;;;;;23.90;42.00;;;;;;492233;242;1195;-72
2022/11/02 03:55:41;;;;;;;;;;;24.00;42.10;;;;;;492311;242;1264;-72
2022/11/02 03:57:42;;;;;;;;;;;24.00;42.00;;;;;;492311;242;1296;-72
2022/11/02 03:59:43;;;;;;;;;;;24.00;42.00;;;;;;492275;242;1291;-71
2022/11/02 04:01:45;;;;;;;;;;;24.00;42.00;;;;;;492207;242;1213;-72
2022/11/02 04:03:46;;;;;;;;;;;24.00;42.00;;;;;;492261;242;1314;-72
2022/11/02 04:05:47;;;;;;;;;;;24.00;41.90;;;;;;492213;242;1278;-72
2022/11/02 04:10:08;;;;;;;;;;;24.00;41.90;;;;;;492297;242;1308;-72
2022/11/02 04:14:38;;;;;;;;;;;24.00;42.10;;;;;;492249;242;1347;-71
2022/11/02 04:16:39;;;;;;;;;;;24.00;42.00;;;;;;492263;242;1401;-72
2022/11/02 04:21:00;;;;;;;;;;;24.10;42.00;;;;;;492255;242;1230;-72
2022/11/02 04:25:34;;;;;;;;;;;24.10;41.90;;;;;;485316;245;1518;-72
2022/11/02 04:27:35;;;;;;;;;;;24.00;42.00;;;;;;485305;245;1417;-72
2022/11/02 04:29:36;;;;;;;;;;;24.10;42.00;;;;;;485216;246;1244;-72
2022/11/02 04:31:38;;;;;;;;;;;24.10;41.80;;;;;;485283;246;2214;-72
2022/11/02 04:33:40;;;;;;;;;;;24.10;41.90;;;;;;485250;245;1382;-72
2022/11/02 04:35:40;;;;;;;;;;;24.10;41.80;;;;;;485218;245;1829;-72
2022/11/02 04:40:01;;;;;;;;;;;24.10;41.70;;;;;;485310;246;1616;-72
2022/11/02 04:42:02;;;;;;;;;;;24.00;41.80;;;;;;485320;245;1330;-72
2022/11/02 04:44:04;;;;;;;;;;;24.00;41.80;;;;;;485290;246;1565;-74
2022/11/02 04:46:05;;;;;;;;;;;24.00;41.80;;;;;;485330;245;1339;-74
2022/11/02 04:48:06;;;;;;;;;;;24.00;41.60;;;;;;485287;246;1586;-74
2022/11/02 04:50:08;;;;;;;;;;;24.00;41.60;;;;;;485362;245;1295;-74
2022/11/02 04:52:09;;;;;;;;;;;24.00;41.60;;;;;;485300;245;2183;-74
2022/11/02 04:54:10;;;;;;;;;;;24.00;41.60;;;;;;485398;245;1304;-74
2022/11/02 04:56:12;;;;;;;;;;;24.10;41.50;;;;;;485286;246;1252;-74
2022/11/02 04:58:13;;;;;;;;;;;24.10;41.40;;;;;;485151;246;1396;-74
2022/11/02 05:00:14;;;;;;;;;;;24.10;41.40;;;;;;485371;245;1367;-74
2022/11/02 05:02:16;;;;;;;;;;;24.10;41.30;;;;;;490049;242;1223;-74
2022/11/02 05:04:17;;;;;;;;;;;24.10;41.30;;;;;;492162;242;1237;-74
2022/11/02 05:06:18;;;;;;;;;;;24.10;41.20;;;;;;492292;242;1266;-74
2022/11/02 05:08:20;;;;;;;;;;;24.10;41.20;;;;;;492255;242;1310;-74
2022/11/02 05:10:21;;;;;;;;;;;24.00;41.20;;;;;;492372;242;1336;-74
2022/11/02 05:12:22;;;;;;;;;;;23.90;41.40;;;;;;492252;242;2187;-74
2022/11/02 05:14:24;;;;;;;;;;;23.90;41.50;;;;;;492262;242;1154;-74
2022/11/02 05:16:25;;;;;;;;;;;23.90;41.40;;;;;;492282;242;1338;-74
2022/11/02 05:18:26;;;;;;;;;;;23.90;41.30;;;;;;492265;242;1240;-74
2022/11/02 05:20:28;;;;;;;;;;;24.00;41.30;;;;;;492298;242;1204;-74
2022/11/02 05:22:29;;;;;;;;;;;24.00;41.20;;;;;;492303;242;1234;-74
2022/11/02 05:24:30;;;;;;;;;;;24.00;41.20;;;;;;492253;242;1283;-74
2022/11/02 05:26:32;;;;;;;;;;;24.00;41.20;;;;;;492219;242;1387;-74
2022/11/02 05:28:33;;;;;;;;;;;24.00;41.10;;;;;;492173;242;1318;-74
2022/11/02 05:30:34;;;;;;;;;;;24.00;41.00;;;;;;492224;242;1192;-74
2022/11/02 05:32:36;;;;;;;;;;;24.00;40.90;;;;;;492149;242;2263;-74
2022/11/02 05:34:37;;;;;;;;;;;24.10;40.80;;;;;;492194;242;1199;-74
2022/11/02 05:36:38;;;;;;;;;;;24.10;40.80;;;;;;492227;242;1627;-74
2022/11/02 05:38:40;;;;;;;;;;;24.20;40.80;;;;;;492194;242;1233;-74
2022/11/02 05:40:41;;;;;;;;;;;24.20;40.80;;;;;;492218;242;1261;-74
2022/11/02 05:42:42;;;;;;;;;;;24.20;40.70;;;;;;492208;242;1327;-74
2022/11/02 05:44:44;;;;;;;;;;;24.20;40.60;;;;;;492203;242;1281;-74
2022/11/02 05:46:45;;;;;;;;;;;24.10;40.70;;;;;;492378;242;1779;-74
2022/11/02 05:48:46;;;;;;;;;;;24.10;40.70;;;;;;492185;242;1295;-74
2022/11/02 05:50:48;;;;;;;;;;;24.20;40.60;;;;;;492218;242;1405;-74
2022/11/02 05:52:49;;;;;;;;;;;24.20;40.40;;;;;;492198;242;2157;-74
2022/11/02 05:54:50;;;;;;;;;;;24.20;40.40;;;;;;492286;242;1250;-74
2022/11/02 05:56:51;;;;;;;;;;;24.20;40.30;;;;;;492139;242;1336;-74
2022/11/02 05:58:53;;;;;;;;;;;24.30;40.30;;;;;;492054;242;1185;-74
2022/11/02 06:00:54;;;;;;;;;;;24.30;40.30;;;;;;491985;242;1309;-74
2022/11/02 06:02:55;;;;;;;;;;;24.30;40.20;;;;;;492093;242;1310;-74
2022/11/02 06:04:57;;;;;;;;;;;24.30;40.20;;;;;;492162;242;1218;-74
2022/11/02 06:06:58;;;;;;;;;;;24.30;40.20;;;;;;492079;242;1208;-74
2022/11/02 06:08:59;;;;;;;;;;;24.20;40.20;;;;;;492155;242;1282;-74
2022/11/02 06:11:01;;;;;;;;;;;24.20;40.10;;;;;;492163;242;1396;-74
2022/11/02 06:13:02;;;;;;;;;;;24.20;40.20;;;;;;492191;242;2156;-74
2022/11/02 06:15:03;;;;;;;;;;;24.20;40.20;;;;;;492175;242;1178;-74
2022/11/02 06:17:05;;;;;;;;;;;24.20;40.30;;;;;;492140;242;1216;-74
2022/11/02 06:19:06;;;;;;;;;;;24.20;40.20;;;;;;492185;242;1163;-74
2022/11/02 06:21:07;;;;;;;;;;;24.20;40.20;;;;;;492081;242;1431;-74
2022/11/02 06:23:09;;;;;;;;;;;24.20;40.20;;;;;;492036;242;1277;-74
2022/11/02 06:25:10;;;;;;;;;;;24.20;40.20;;;;;;492018;242;1175;-74
2022/11/02 06:27:11;;;;;;;;;;;24.20;40.20;;;;;;492050;242;1314;-74
2022/11/02 06:29:13;;;;;;;;;;;24.20;40.10;;;;;;492028;242;1233;-74
2022/11/02 06:31:16;;;;;;;;;;;24.20;40.20;;;;;;492115;242;1590;-74
2022/11/02 06:33:16;;;;;;;;;;;24.10;40.20;;;;;;492093;242;2180;-74
2022/11/02 06:35:18;;;;;;;;;;;24.20;40.10;;;;;;492054;242;1290;-74
2022/11/02 06:37:19;;;;;;;;;;;24.20;40.10;;;;;;492046;242;1239;-74
2022/11/02 06:39:20;;;;;;;;;;;24.10;39.90;;;;;;492072;242;1205;-74
2022/11/02 06:41:22;;;;;;;;;;;24.10;40.30;;;;;;491977;242;1703;-74
2022/11/02 06:43:23;;;;;;;;;;;24.00;40.40;;;;;;491989;242;1244;-74
2022/11/02 06:45:25;;;;;;;;;;;24.00;40.40;;;;;;492077;242;1327;-74
2022/11/02 06:47:26;;;;;;;;;;;24.00;40.40;;;;;;492050;242;1172;-74
2022/11/02 06:49:27;;;;;;;;;;;24.00;40.20;;;;;;492046;242;1290;-74
2022/11/02 06:51:28;;;;;;;;;;;24.10;40.30;;;;;;492026;242;1240;-74
2022/11/02 06:53:30;;;;;;;;;;;24.10;40.10;;;;;;492042;242;2113;-74
2022/11/02 06:55:31;;;;;;;;;;;24.20;40.00;;;;;;492020;242;1354;-74
2022/11/02 06:57:32;;;;;;;;;;;24.20;40.00;;;;;;492086;242;1162;-74
2022/11/02 06:59:34;;;;;;;;;;;24.20;40.00;;;;;;492088;242;1142;-74
2022/11/02 07:01:35;;;;;;;;;;;24.20;39.90;;;;;;492102;242;1168;-74
2022/11/02 07:03:36;;;;;;;;;;;24.20;39.80;;;;;;492199;242;1163;-74
2022/11/02 07:05:38;;;;;;;;;;;24.30;39.70;;;;;;492156;242;1204;-74
2022/11/02 07:07:39;;;;;;;;;;;24.20;39.90;;;;;;492135;242;1398;-74
2022/11/02 07:09:40;;;;;;;;;;;24.20;39.90;;;;;;492085;242;1231;-74
2022/11/02 07:11:42;;;;;;;;;;;24.20;39.90;;;;;;491882;242;1225;-74
2022/11/02 07:13:43;;;;;;;;;;;24.20;39.90;;;;;;492033;242;2183;-74
2022/11/02 07:15:44;;;;;;;;;;;24.20;40.00;;;;;;491944;242;1355;-75
2022/11/02 07:17:46;;;;;;;;;;;24.20;40.00;;;;;;491894;242;1176;-74
2022/11/02 07:19:47;;;;;;;;;;;24.20;40.10;;;;;;492067;242;1189;-74
2022/11/02 07:21:48;;;;;;;;;;;24.20;40.20;;;;;;491919;242;1504;-74
2022/11/02 07:23:50;;;;;;;;;;;24.20;40.30;;;;;;491965;242;1296;-74
2022/11/02 07:25:51;;;;;;;;;;;24.10;40.30;;;;;;491941;242;1493;-74
2022/11/02 07:27:52;;;;;;;;;;;24.20;40.50;;;;;;491950;242;1384;-74
2022/11/02 07:29:54;;;;;;;;;;;24.20;40.50;;;;;;492005;242;1317;-74
2022/11/02 07:31:55;;;;;;;;;;;24.20;40.60;;;;;;491966;242;2172;-74
2022/11/02 07:33:56;;;;;;;;;;;24.20;40.70;;;;;;492039;242;1596;-74
2022/11/02 07:35:57;;;;;;;;;;;24.10;40.80;;;;;;491989;242;1305;-74
2022/11/02 07:37:59;;;;;;;;;;;24.20;40.90;;;;;;492069;242;1177;-74
2022/11/02 07:40:00;;;;;;;;;;;24.10;40.90;;;;;;492044;242;1173;-74
2022/11/02 07:42:01;;;;;;;;;;;24.10;41.00;;;;;;491685;242;1272;-74
2022/11/02 07:44:03;;;;;;;;;;;24.20;41.10;;;;;;491906;242;1451;-74
2022/11/02 07:46:04;;;;;;;;;;;24.10;41.10;;;;;;491884;242;1303;-74
2022/11/02 07:48:05;;;;;;;;;;;24.20;41.10;;;;;;491923;242;1204;-74
2022/11/02 07:50:07;;;;;;;;;;;24.20;41.30;;;;;;491902;242;1211;-74
2022/11/02 07:52:08;;;;;;;;;;;24.20;41.30;;;;;;491875;242;2188;-74
2022/11/02 07:54:09;;;;;;;;;;;24.10;41.50;;;;;;491986;242;1188;-74
2022/11/02 07:56:11;;;;;;;;;;;24.10;41.60;;;;;;491734;242;1294;-74
2022/11/02 07:58:13;;;;;;;;;;;24.10;41.70;;;;;;491728;242;1169;-74
2022/11/02 08:00:14;;;;;;;;;;;24.10;41.80;;;;;;491903;242;1248;-74
2022/11/02 08:02:15;;;;;;;;;;;24.10;41.90;;;;;;491801;242;1223;-75
2022/11/02 08:04:17;;;;;;;;;;;24.10;42.10;;;;;;491957;242;1203;-74
2022/11/02 08:06:18;;;;;;;;;;;24.10;42.00;;;;;;491783;242;1207;-74
2022/11/02 08:08:19;;;;;;;;;;;24.10;42.20;;;;;;491916;242;1257;-74
2022/11/02 08:10:21;;;;;;;;;;;24.10;42.20;;;;;;491699;242;1169;-74
2022/11/02 08:12:22;;;;;;;;;;;24.10;42.20;;;;;;491626;242;2172;-74
2022/11/02 08:14:23;;;;;;;;;;;24.10;42.40;;;;;;491741;242;1204;-74
2022/11/02 08:16:25;;;;;;;;;;;24.10;42.40;;;;;;491920;242;1218;-74
2022/11/02 08:18:26;;;;;;;;;;;24.10;42.40;;;;;;491669;242;1346;-74
2022/11/02 08:20:27;;;;;;;;;;;24.10;42.40;;;;;;491809;242;1356;-74
2022/11/02 08:22:29;;;;;;;;;;;24.10;42.50;;;;;;491837;242;1450;-74
2022/11/02 08:24:30;;;;;;;;;;;24.00;42.60;;;;;;491913;242;1205;-74
2022/11/02 08:26:31;;;;;;;;;;;24.10;42.70;;;;;;491901;242;1164;-74
2022/11/02 08:28:34;;;;;;;;;;;24.10;42.80;;;;;;491816;242;1235;-74
2022/11/02 08:30:34;;;;;;;;;;;24.10;42.80;;;;;;491834;242;1968;-74
2022/11/02 08:32:36;;;;;;;;;;;24.00;42.90;;;;;;491873;242;2188;-74
2022/11/02 08:34:37;;;;;;;;;;;24.10;42.90;;;;;;491830;242;1323;-74
2022/11/02 08:36:38;;;;;;;;;;;24.10;42.80;;;;;;491942;242;1119;-74
2022/11/02 08:38:41;;;;;;;;;;;24.10;42.80;;;;;;491862;242;1224;-74
2022/11/02 08:40:41;;;;;;;;;;;24.10;42.80;;;;;;491913;242;2011;-74
2022/11/02 08:42:42;;;;;;;;;;;24.10;42.90;;;;;;491882;242;1258;-74
2022/11/02 08:44:44;;;;;;;;;;;24.10;43.00;;;;;;491767;242;1217;-74
2022/11/02 08:46:45;;;;;;;;;;;24.10;42.90;;;;;;491784;242;1524;-74
2022/11/02 08:48:46;;;;;;;;;;;24.10;43.00;;;;;;491860;242;1240;-74
2022/11/02 08:50:48;;;;;;;;;;;24.10;43.10;;;;;;491920;242;1258;-74
2022/11/02 08:52:49;;;;;;;;;;;24.00;43.00;;;;;;491843;242;2164;-74
2022/11/02 08:54:50;;;;;;;;;;;24.00;43.00;;;;;;491760;242;1411;-74
2022/11/02 08:56:52;;;;;;;;;;;24.10;43.00;;;;;;491759;242;1242;-74
2022/11/02 08:58:53;;;;;;;;;;;24.10;42.90;;;;;;491811;242;1174;-74
2022/11/02 09:00:54;;;;;;;;;;;24.00;43.00;;;;;;491749;242;1240;-74
2022/11/02 09:02:56;;;;;;;;;;;24.00;43.10;;;;;;491885;242;1273;-74
2022/11/02 09:04:57;;;;;;;;;;;24.10;43.00;;;;;;491687;242;1814;-74
2022/11/02 09:06:58;;;;;;;;;;;24.10;43.00;;;;;;491788;242;1275;-74
2022/11/02 09:09:00;;;;;;;;;;;24.10;43.00;;;;;;491229;242;1170;-74
2022/11/02 09:11:01;;;;;;;;;;;24.20;42.90;;;;;;491811;242;1189;-74
2022/11/02 09:13:02;;;;;;;;;;;24.10;42.70;;;;;;491839;242;2199;-74
2022/11/02 09:15:04;;;;;;;;;;;24.10;42.70;;;;;;491791;242;1253;-74
2022/11/02 09:17:05;;;;;;;;;;;24.10;42.70;;;;;;491871;242;1154;-74
2022/11/02 09:19:06;;;;;;;;;;;24.20;42.70;;;;;;491871;242;1167;-74
2022/11/02 09:21:08;;;;;;;;;;;24.20;42.70;;;;;;491909;242;1499;-74
2022/11/02 09:23:09;;;;;;;;;;;24.10;42.60;;;;;;491718;242;1224;-74
2022/11/02 09:25:10;;;;;;;;;;;24.10;42.60;;;;;;491830;242;1328;-74
2022/11/02 09:27:11;;;;;;;;;;;24.20;42.60;;;;;;491937;242;1297;-74
2022/11/02 09:29:13;;;;;;;;;;;24.20;42.60;;;;;;491861;242;1659;-73
2022/11/02 09:31:14;;;;;;;;;;;24.20;42.50;;;;;;491810;242;1142;-74
2022/11/02 09:33:15;;;;;;;;;;;24.20;42.50;;;;;;491863;242;2192;-74
2022/11/02 09:35:17;;;;;;;;;;;24.10;42.60;;;;;;491917;242;1216;-74
2022/11/02 09:37:18;;;;;;;;;;;24.10;42.80;;;;;;491961;242;1266;-74
2022/11/02 09:39:23;;;;;;;;;;;24.00;43.10;;;;;;491984;242;1664;-73
2022/11/02 09:41:21;;;;;;;;;;;24.00;43.30;;;;;;491862;242;1799;-73
2022/11/02 09:43:22;;;;;;;;;;;24.00;43.30;;;;;;491818;242;1130;-73
2022/11/02 09:45:24;;;;;;;;;;;23.90;43.50;;;;;;491861;242;1188;-73
2022/11/02 09:47:25;;;;;;;;;;;24.00;43.60;;;;;;491867;242;1152;-73
2022/11/02 09:49:26;;;;;;;;;;;23.90;43.60;;;;;;491833;242;1605;-73
2022/11/02 09:51:28;;;;;;;;;;;23.90;43.70;;;;;;491812;242;1234;-73
2022/11/02 09:53:29;;;;;;;;;;;23.90;43.60;;;;;;491806;242;2199;-73
2022/11/02 09:55:30;;;;;;;;;;;24.00;43.70;;;;;;491681;242;1599;-74
2022/11/02 09:57:32;;;;;;;;;;;24.00;43.60;;;;;;491774;242;1274;-73
2022/11/02 09:59:33;;;;;;;;;;;23.90;43.50;;;;;;491811;242;1325;-73
2022/11/02 10:01:34;;;;;;;;;;;24.00;43.50;;;;;;491673;242;1430;-73
2022/11/02 10:03:36;;;;;;;;;;;24.00;43.40;;;;;;491795;242;1606;-73
2022/11/02 10:05:37;;;;;;;;;;;24.10;43.30;;;;;;491724;242;1648;-73
2022/11/02 10:07:38;;;;;;;;;;;24.10;43.40;;;;;;491710;242;1215;-73
2022/11/02 10:09:40;;;;;;;;;;;24.10;43.30;;;;;;491907;242;1381;-73
2022/11/02 10:11:41;;;;;;;;;;;24.10;43.20;;;;;;491774;242;1227;-73
2022/11/02 10:13:42;;;;;;;;;;;24.10;43.10;;;;;;491840;242;2180;-73
2022/11/02 10:15:44;;;;;;;;;;;24.10;43.00;;;;;;491930;242;1320;-73
2022/11/02 10:17:46;;;;;;;;;;;24.20;43.00;;;;;;491869;242;1147;-73
2022/11/02 10:19:46;;;;;;;;;;;24.20;42.80;;;;;;491716;242;1849;-73
2022/11/02 10:21:47;;;;;;;;;;;24.20;42.80;;;;;;491745;242;1180;-73
2022/11/02 10:23:49;;;;;;;;;;;24.20;42.80;;;;;;491779;242;1313;-73
2022/11/02 10:25:50;;;;;;;;;;;24.20;42.80;;;;;;491815;242;1183;-73
2022/11/02 10:27:52;;;;;;;;;;;24.20;42.80;;;;;;491821;242;1528;-74
2022/11/02 10:29:53;;;;;;;;;;;24.20;42.80;;;;;;491863;242;1339;-74
2022/11/02 10:31:54;;;;;;;;;;;24.20;42.70;;;;;;491563;242;1185;-74
2022/11/02 10:33:56;;;;;;;;;;;24.20;42.60;;;;;;491901;242;2199;-74
2022/11/02 10:35:57;;;;;;;;;;;24.20;42.70;;;;;;491876;242;1200;-74
2022/11/02 10:37:58;;;;;;;;;;;24.20;42.50;;;;;;491756;242;1223;-73
2022/11/02 10:40:00;;;;;;;;;;;24.20;42.50;;;;;;491800;242;1221;-73
2022/11/02 10:42:01;;;;;;;;;;;24.20;42.30;;;;;;491789;242;1148;-73
2022/11/02 10:44:02;;;;;;;;;;;24.30;42.30;;;;;;491774;242;1191;-73
2022/11/02 10:46:04;;;;;;;;;;;24.20;42.20;;;;;;491866;242;1174;-73
2022/11/02 10:48:05;;;;;;;;;;;24.30;42.20;;;;;;491825;242;1181;-74
2022/11/02 10:50:07;;;;;;;;;;;24.30;42.20;;;;;;491860;242;1287;-73
2022/11/02 10:52:08;;;;;;;;;;;24.20;42.20;;;;;;491910;242;1197;-73
2022/11/02 10:54:09;;;;;;;;;;;24.30;42.20;;;;;;491746;242;2195;-73
2022/11/02 10:56:11;;;;;;;;;;;24.30;42.20;;;;;;491826;242;1244;-73
2022/11/02 10:58:12;;;;;;;;;;;24.30;42.30;;;;;;491839;242;1244;-73
2022/11/02 11:00:13;;;;;;;;;;;24.30;42.40;;;;;;491873;242;1173;-73
2022/11/02 11:02:15;;;;;;;;;;;24.30;42.40;;;;;;491813;242;1305;-73
2022/11/02 11:04:16;;;;;;;;;;;24.30;42.40;;;;;;491905;242;2058;-73
2022/11/02 11:06:17;;;;;;;;;;;24.30;42.30;;;;;;491897;242;1195;-73
2022/11/02 11:08:19;;;;;;;;;;;24.20;42.30;;;;;;491953;242;1186;-73
2022/11/02 11:10:20;;;;;;;;;;;24.30;42.30;;;;;;491745;242;1333;-73
2022/11/02 11:12:21;;;;;;;;;;;24.30;42.30;;;;;;491906;242;1241;-73
2022/11/02 11:14:23;;;;;;;;;;;24.30;42.30;;;;;;491979;242;2164;-73
2022/11/02 11:16:24;;;;;;;;;;;24.20;42.30;;;;;;491916;242;1568;-73
2022/11/02 11:18:26;;;;;;;;;;;24.20;42.20;;;;;;491886;242;1305;-73
2022/11/02 11:20:27;;;;;;;;;;;24.30;42.30;;;;;;491951;242;1182;-73
2022/11/02 11:22:28;;;;;;;;;;;24.30;42.30;;;;;;491953;242;1211;-74
2022/11/02 11:24:29;;;;;;;;;;;24.30;42.30;;;;;;491888;242;1188;-73
2022/11/02 11:26:31;;;;;;;;;;;24.20;42.20;;;;;;491800;242;1208;-73
2022/11/02 11:28:32;;;;;;;;;;;24.20;42.20;;;;;;491746;242;1246;-73
2022/11/02 11:30:34;;;;;;;;;;;24.20;42.20;;;;;;491856;242;1267;-73
2022/11/02 11:32:35;;;;;;;;;;;24.20;42.20;;;;;;491905;242;1431;-73
2022/11/02 11:34:36;;;;;;;;;;;24.30;42.20;;;;;;491915;242;2636;-74
2022/11/02 11:36:37;;;;;;;;;;;24.20;42.20;;;;;;491789;242;1149;-74
2022/11/02 11:38:39;;;;;;;;;;;24.30;42.20;;;;;;491885;242;1217;-74
2022/11/02 11:40:40;;;;;;;;;;;24.30;42.30;;;;;;491867;242;1480;-74
2022/11/02 11:42:42;;;;;;;;;;;24.30;42.20;;;;;;491800;242;1248;-74
2022/11/02 11:44:43;;;;;;;;;;;24.30;42.10;;;;;;491798;242;1612;-74
2022/11/02 11:46:44;;;;;;;;;;;24.30;42.10;;;;;;491796;242;1137;-74
2022/11/02 11:48:46;;;;;;;;;;;24.30;42.00;;;;;;491744;242;1497;-74
2022/11/02 11:50:47;;;;;;;;;;;24.30;42.00;;;;;;491742;242;1373;-73
2022/11/02 11:52:49;;;;;;;;;;;24.30;41.90;;;;;;491902;242;1315;-73
2022/11/02 11:54:50;;;;;;;;;;;24.30;42.00;;;;;;491864;242;2191;-73
2022/11/02 11:56:51;;;;;;;;;;;24.20;42.00;;;;;;491627;242;1598;-73
2022/11/02 11:58:52;;;;;;;;;;;24.30;42.00;;;;;;491792;242;1230;-73
2022/11/02 12:00:54;;;;;;;;;;;24.30;41.90;;;;;;491798;242;1488;-73
2022/11/02 12:02:55;;;;;;;;;;;24.30;42.00;;;;;;491819;242;1320;-73
2022/11/02 12:04:56;;;;;;;;;;;24.30;42.00;;;;;;491835;242;1202;-73
2022/11/02 12:06:57;;;;;;;;;;;24.30;41.80;;;;;;491603;242;1516;-72
2022/11/02 12:08:59;;;;;;;;;;;24.30;41.90;;;;;;491839;242;1222;-73